createdAt,value
2018-11-20T00:02:22.855Z,4.17
2018-11-20T00:05:14.145Z,4.19
2018-11-20T00:08:00.877Z,4.26
2018-11-20T00:10:49.224Z,4.27
2018-11-20T00:13:36.242Z,4.31
2018-11-20T00:16:33.687Z,4.36
2018-11-20T00:19:31.239Z,4.39
2018-11-20T00:22:18.218Z,4.36
2018-11-20T00:25:12.733Z,4.34
2018-11-20T00:28:01.467Z,4.38
2018-11-20T00:30:45.752Z,4.39
2018-11-20T00:33:32.492Z,4.39
2018-11-20T00:36:26.732Z,4.36
2018-11-20T00:39:13.342Z,4.38
2018-11-20T00:41:53.157Z,4.42
2018-11-20T00:44:53.309Z,4.43
2018-11-20T00:47:40.246Z,4.44
2018-11-20T00:50:19.580Z,4.46
2018-11-20T00:53:20.702Z,4.44
2018-11-20T00:57:00.119Z,4.48
2018-11-20T00:59:49.169Z,4.52
2018-11-20T01:02:37.505Z,4.44
2018-11-20T01:05:32.699Z,4.48
2018-11-20T01:08:21.101Z,4.47
2018-11-20T01:11:21.741Z,4.47
2018-11-20T01:14:09.205Z,4.44
2018-11-20T01:16:57.556Z,4.44
2018-11-20T01:19:45.920Z,4.44
2018-11-20T01:22:43.662Z,4.47
2018-11-20T01:25:27.812Z,4.46
2018-11-20T01:28:14.943Z,4.44
2018-11-20T01:31:08.954Z,4.44
2018-11-20T01:33:55.929Z,4.43
2018-11-20T01:36:37.173Z,4.41
2018-11-20T01:39:30.642Z,4.39
2018-11-20T01:42:17.810Z,4.46
2018-11-20T01:45:24.332Z,4.46
2018-11-20T01:48:21.962Z,4.41
2018-11-20T01:51:10.357Z,4.37
2018-11-20T01:54:16.808Z,4.40
2018-11-20T01:57:03.878Z,4.40
2018-11-20T02:00:07.482Z,4.36
2018-11-20T02:02:56.880Z,4.41
2018-11-20T02:05:45.186Z,4.38
2018-11-20T02:08:32.501Z,4.37
2018-11-20T02:11:12.921Z,4.37
2018-11-20T02:14:49.012Z,4.37
2018-11-20T02:17:54.066Z,4.40
2018-11-20T02:20:42.540Z,4.38
2018-11-20T02:23:30.173Z,4.36
2018-11-20T02:26:16.437Z,4.34
2018-11-20T02:29:13.922Z,4.33
2018-11-20T02:31:55.059Z,4.31
2018-11-20T02:34:46.092Z,4.29
2018-11-20T02:37:49.770Z,4.33
2018-11-20T02:40:38.117Z,4.36
2018-11-20T02:43:38.600Z,4.34
2018-11-20T02:46:42.124Z,4.35
2018-11-20T02:49:29.548Z,4.34
2018-11-20T02:52:26.924Z,4.34
2018-11-20T02:55:21.003Z,4.25
2018-11-20T02:58:15.128Z,4.24
2018-11-20T03:01:04.068Z,4.24
2018-11-20T03:03:52.545Z,4.23
2018-11-20T03:06:53.160Z,4.19
2018-11-20T03:09:47.566Z,4.17
2018-11-20T03:12:27.071Z,4.18
2018-11-20T03:15:07.036Z,4.15
2018-11-20T03:18:01.333Z,4.15
2018-11-20T03:20:38.852Z,4.13
2018-11-20T03:23:36.302Z,4.12
2018-11-20T03:26:28.269Z,4.11
2018-11-20T03:29:39.579Z,4.13
2018-11-20T03:32:26.609Z,4.10
2018-11-20T03:35:04.644Z,4.10
2018-11-20T03:37:55.557Z,4.10
2018-11-20T03:40:37.610Z,4.09
2018-11-20T03:43:38.372Z,4.15
2018-11-20T03:46:29.337Z,4.14
2018-11-20T03:49:25.923Z,4.11
2018-11-20T03:52:26.045Z,4.06
2018-11-20T03:55:29.635Z,4.05
2018-11-20T03:58:23.696Z,4.08
2018-11-20T04:01:10.674Z,4.04
2018-11-20T04:03:58.986Z,4.12
2018-11-20T04:06:47.548Z,4.09
2018-11-20T04:09:45.288Z,4.14
2018-11-20T04:12:33.046Z,4.15
2018-11-20T04:15:24.380Z,4.14
2018-11-20T04:18:11.547Z,4.11
2018-11-20T04:20:58.558Z,4.04
2018-11-20T04:23:46.951Z,3.98
2018-11-20T04:26:44.043Z,3.91
2018-11-20T04:29:32.521Z,3.90
2018-11-20T04:32:39.139Z,3.81
2018-11-20T04:35:41.506Z,3.87
2018-11-20T04:38:45.057Z,3.86
2018-11-20T04:41:30.900Z,3.84
2018-11-20T04:44:18.008Z,3.87
2018-11-20T04:47:15.531Z,3.87
2018-11-20T04:49:52.934Z,3.86
2018-11-20T04:52:59.616Z,3.82
2018-11-20T04:55:47.198Z,3.82
2018-11-20T04:58:27.807Z,3.78
2018-11-20T05:01:19.255Z,3.82
2018-11-20T05:04:06.360Z,3.79
2018-11-20T05:06:55.470Z,3.83
2018-11-20T05:09:42.375Z,3.84
2018-11-20T05:12:29.431Z,3.83
2018-11-20T05:15:16.426Z,3.88
2018-11-20T05:18:03.445Z,3.89
2018-11-20T05:20:54.023Z,3.91
2018-11-20T05:23:57.613Z,3.91
2018-11-20T05:26:40.870Z,3.98
2018-11-20T05:29:38.413Z,3.96
2018-11-20T05:32:38.904Z,3.97
2018-11-20T05:35:26.443Z,3.97
2018-11-20T05:38:03.196Z,3.99
2018-11-20T05:40:42.643Z,4.04
2018-11-20T05:43:38.357Z,4.02
2018-11-20T05:46:25.662Z,4.04
2018-11-20T05:49:14.022Z,4.06
2018-11-20T05:52:03.530Z,4.06
2018-11-20T05:54:50.695Z,4.12
2018-11-20T05:57:39.031Z,4.09
2018-11-20T06:00:31.503Z,4.14
2018-11-20T06:03:19.845Z,4.11
2018-11-20T06:06:14.293Z,4.14
2018-11-20T06:09:01.362Z,4.17
2018-11-20T06:11:48.184Z,4.16
2018-11-20T06:14:42.636Z,4.18
2018-11-20T06:17:29.707Z,4.13
2018-11-20T06:20:20.827Z,4.17
2018-11-20T06:23:09.182Z,4.17
2018-11-20T06:25:57.525Z,4.17
2018-11-20T06:28:46.030Z,4.23
2018-11-20T06:31:37.202Z,4.21
2018-11-20T06:34:25.754Z,4.22
2018-11-20T06:37:17.169Z,4.21
2018-11-20T06:40:04.399Z,4.20
2018-11-20T06:42:56.887Z,4.21
2018-11-20T06:46:00.270Z,4.25
2018-11-20T06:48:49.167Z,4.23
2018-11-20T06:51:28.705Z,4.25
2018-11-20T06:54:15.985Z,4.22
2018-11-20T06:57:02.970Z,4.25
2018-11-20T06:59:50.290Z,4.22
2018-11-20T07:03:18.765Z,4.25
2018-11-20T07:06:24.415Z,4.19
2018-11-20T07:09:05.405Z,4.18
2018-11-20T07:11:52.460Z,4.20
2018-11-20T07:15:00.921Z,4.16
2018-11-20T07:18:03.812Z,4.14
2018-11-20T07:20:51.420Z,4.16
2018-11-20T07:23:37.560Z,4.15
2018-11-20T07:26:23.807Z,4.09
2018-11-20T07:29:09.943Z,4.06
2018-11-20T07:31:58.296Z,4.04
2018-11-20T07:34:55.176Z,4.00
2018-11-20T07:37:41.388Z,3.96
2018-11-20T07:40:31.689Z,3.93
2018-11-20T07:43:13.077Z,3.95
2018-11-20T07:45:59.140Z,3.92
2018-11-20T07:48:45.473Z,3.90
2018-11-20T07:51:31.899Z,3.96
2018-11-20T07:54:22.021Z,3.90
2018-11-20T07:57:08.222Z,3.88
2018-11-20T07:59:54.170Z,3.90
2018-11-20T08:02:35.884Z,3.91
2018-11-20T08:05:22.632Z,3.86
2018-11-20T08:08:12.567Z,3.81
2018-11-20T08:10:50.028Z,3.83
2018-11-20T08:13:39.439Z,3.82
2018-11-20T08:16:23.405Z,3.86
2018-11-20T08:19:16.458Z,3.85
2018-11-20T08:22:07.375Z,3.85
2018-11-20T08:24:53.504Z,3.85
2018-11-20T08:27:35.259Z,3.83
2018-11-20T08:30:34.987Z,3.87
2018-11-20T08:33:20.906Z,3.82
2018-11-20T08:36:03.720Z,3.78
2018-11-20T08:38:52.668Z,3.79
2018-11-20T08:41:49.431Z,3.79
2018-11-20T08:44:52.900Z,3.75
2018-11-20T08:47:58.566Z,3.72
2018-11-20T08:50:55.321Z,3.73
2018-11-20T08:53:39.328Z,3.73
2018-11-20T08:56:25.510Z,3.71
2018-11-20T08:59:22.455Z,3.77
2018-11-20T09:02:08.593Z,3.75
2018-11-20T09:04:55.769Z,3.76
2018-11-20T09:07:55.782Z,3.74
2018-11-20T09:10:41.949Z,3.72
2018-11-20T09:13:35.560Z,3.70
2018-11-20T09:16:22.041Z,3.71
2018-11-20T09:19:27.875Z,3.74
2018-11-20T09:22:14.238Z,3.73
2018-11-20T09:24:56.386Z,3.70
2018-11-20T09:27:46.934Z,3.72
2018-11-20T09:30:40.347Z,3.70
2018-11-20T09:33:39.497Z,3.70
2018-11-20T09:36:18.726Z,3.64
2018-11-20T09:39:06.747Z,3.68
2018-11-20T09:41:46.203Z,3.67
2018-11-20T09:45:07.855Z,3.69
2018-11-20T09:47:55.154Z,3.73
2018-11-20T09:50:58.028Z,3.68
2018-11-20T09:53:45.567Z,3.68
2018-11-20T09:56:32.367Z,3.66
2018-11-20T09:59:20.034Z,3.73
2018-11-20T10:02:22.733Z,3.69
2018-11-20T10:05:01.929Z,3.73
2018-11-20T10:07:48.114Z,3.74
2018-11-20T10:10:44.770Z,3.71
2018-11-20T10:13:44.332Z,3.71
2018-11-20T10:16:30.637Z,3.74
2018-11-20T10:19:16.523Z,3.73
2018-11-20T10:22:08.063Z,3.74
2018-11-20T10:24:54.355Z,3.75
2018-11-20T10:27:36.556Z,3.77
2018-11-20T10:30:24.582Z,3.74
2018-11-20T10:33:07.849Z,3.74
2018-11-20T10:35:55.472Z,3.78
2018-11-20T10:38:48.755Z,3.76
2018-11-20T10:41:35.201Z,3.76
2018-11-20T10:44:29.038Z,3.76
2018-11-20T10:47:16.993Z,3.78
2018-11-20T10:50:03.423Z,3.79
2018-11-20T10:52:50.104Z,3.81
2018-11-20T10:55:40.671Z,3.85
2018-11-20T10:58:26.943Z,3.80
2018-11-20T11:01:13.290Z,3.80
2018-11-20T11:04:06.565Z,3.88
2018-11-20T11:06:54.918Z,3.88
2018-11-20T11:09:40.568Z,3.84
2018-11-20T11:12:37.585Z,3.86
2018-11-20T11:15:24.837Z,3.89
2018-11-20T11:18:10.046Z,3.90
2018-11-20T11:21:09.930Z,3.93
2018-11-20T11:23:54.875Z,3.90
2018-11-20T11:26:51.391Z,3.89
2018-11-20T11:29:51.512Z,3.88
2018-11-20T11:32:33.921Z,3.87
2018-11-20T11:35:19.920Z,3.86
2018-11-20T11:38:19.287Z,3.85
2018-11-20T11:40:59.735Z,3.85
2018-11-20T11:43:58.536Z,3.80
2018-11-20T11:47:01.064Z,3.80
2018-11-20T11:49:52.808Z,3.83
2018-11-20T11:52:43.216Z,3.84
2018-11-20T11:55:43.404Z,3.86
2018-11-20T11:58:29.483Z,3.85
2018-11-20T12:01:12.860Z,3.85
2018-11-20T12:04:15.482Z,3.87
2018-11-20T12:07:01.438Z,3.86
2018-11-20T12:09:40.109Z,3.88
2018-11-20T12:12:26.610Z,3.86
2018-11-20T12:15:11.332Z,3.88
2018-11-20T12:17:53.031Z,3.86
2018-11-20T12:20:43.336Z,3.87
2018-11-20T12:23:26.857Z,3.88
2018-11-20T12:26:14.709Z,3.90
2018-11-20T12:29:00.962Z,3.94
2018-11-20T12:31:50.654Z,3.96
2018-11-20T12:34:35.548Z,3.90
2018-11-20T12:37:19.293Z,3.85
2018-11-20T12:40:06.797Z,3.89
2018-11-20T12:42:57.618Z,3.94
2018-11-20T12:45:55.844Z,3.91
2018-11-20T12:48:40.764Z,3.89
2018-11-20T12:51:31.637Z,3.93
2018-11-20T12:54:14.959Z,3.94
2018-11-20T12:56:58.412Z,3.96
2018-11-20T12:59:44.905Z,3.99
2018-11-20T13:02:47.310Z,3.99
2018-11-20T13:05:24.093Z,3.98
2018-11-20T13:08:03.330Z,4.03
2018-11-20T13:11:02.817Z,4.03
2018-11-20T13:13:50.241Z,4.01
2018-11-20T13:16:39.381Z,4.03
2018-11-20T13:19:23.172Z,4.01
2018-11-20T13:22:10.689Z,4.03
2018-11-20T13:25:13.449Z,4.01
2018-11-20T13:27:59.556Z,3.99
2018-11-20T13:30:45.722Z,4.01
2018-11-20T13:33:32.198Z,4.00
2018-11-20T13:36:18.539Z,3.97
2018-11-20T13:38:56.002Z,4.00
2018-11-20T13:42:14.403Z,4.01
2018-11-20T13:45:07.345Z,4.01
2018-11-20T13:47:53.658Z,4.03
2018-11-20T13:50:39.499Z,4.04
2018-11-20T13:53:31.923Z,4.01
2018-11-20T13:56:18.483Z,4.01
2018-11-20T13:59:04.846Z,3.97
2018-11-20T14:01:51.544Z,3.91
2018-11-20T14:04:39.127Z,3.95
2018-11-20T14:07:36.031Z,3.94
2018-11-20T14:10:34.517Z,3.94
2018-11-20T14:13:24.814Z,3.92
2018-11-20T14:16:21.190Z,3.91
2018-11-20T14:19:23.815Z,3.85
2018-11-20T14:22:14.486Z,3.85
2018-11-20T14:25:03.804Z,3.77
2018-11-20T14:27:42.867Z,3.81
2018-11-20T14:30:29.387Z,3.75
2018-11-20T14:33:15.716Z,3.74
2018-11-20T14:36:03.832Z,3.76
2018-11-20T14:38:56.189Z,3.67
2018-11-20T14:41:52.587Z,3.71
2018-11-20T14:44:28.266Z,3.68
2018-11-20T14:47:24.806Z,3.62
2018-11-20T14:50:18.549Z,3.63
2018-11-20T14:53:05.714Z,3.61
2018-11-20T14:55:51.826Z,3.66
2018-11-20T14:58:42.317Z,3.67
2018-11-20T15:01:35.933Z,3.68
2018-11-20T15:04:22.272Z,3.65
2018-11-20T15:07:14.179Z,3.65
2018-11-20T15:10:19.915Z,3.61
2018-11-20T15:13:22.800Z,3.63
2018-11-20T15:16:22.349Z,3.57
2018-11-20T15:19:09.868Z,3.54
2018-11-20T15:21:52.845Z,3.58
2018-11-20T15:24:32.657Z,3.54
2018-11-20T15:27:26.221Z,3.50
2018-11-20T15:30:16.294Z,3.51
2018-11-20T15:33:12.708Z,3.41
2018-11-20T15:36:03.402Z,3.39
2018-11-20T15:38:50.943Z,3.30
2018-11-20T15:41:41.431Z,3.26
2018-11-20T15:44:43.995Z,3.22
2018-11-20T15:47:31.650Z,3.11
2018-11-20T15:50:25.183Z,3.01
2018-11-20T15:53:12.734Z,2.94
2018-11-20T15:56:12.446Z,2.88
2018-11-20T15:59:03.561Z,2.85
2018-11-20T16:01:56.976Z,2.80
2018-11-20T16:04:44.657Z,2.70
2018-11-20T16:07:31.330Z,2.60
2018-11-20T16:10:15.279Z,2.56
2018-11-20T16:12:59.265Z,2.47
2018-11-20T16:16:01.885Z,2.44
2018-11-20T16:18:39.894Z,2.33
2018-11-20T16:21:18.465Z,2.28
2018-11-20T16:24:06.215Z,2.26
2018-11-20T16:26:46.817Z,2.23
2018-11-20T16:29:33.293Z,2.24
2018-11-20T16:32:20.000Z,2.22
2018-11-20T16:35:10.649Z,2.19
2018-11-20T16:38:00.962Z,2.15
2018-11-20T16:40:47.253Z,2.13
2018-11-20T16:43:33.425Z,2.14
2018-11-20T16:46:20.003Z,2.11
2018-11-20T16:49:16.724Z,2.03
2018-11-20T16:52:03.355Z,2.01
2018-11-20T16:54:49.571Z,2.03
2018-11-20T16:57:43.000Z,2.03
2018-11-20T17:00:29.275Z,2.04
2018-11-20T17:03:15.871Z,1.99
2018-11-20T17:06:02.189Z,1.96
2018-11-20T17:08:44.839Z,1.98
2018-11-20T17:11:31.089Z,1.98
2018-11-20T17:14:17.203Z,1.94
2018-11-20T17:17:03.943Z,1.89
2018-11-20T17:19:44.141Z,1.92
2018-11-20T17:22:40.987Z,1.92
2018-11-20T17:25:11.726Z,1.94
2018-11-20T17:28:04.884Z,1.96
2018-11-20T17:30:59.263Z,1.94
2018-11-20T17:33:55.377Z,1.95
2018-11-20T17:36:43.150Z,1.95
2018-11-20T17:39:43.676Z,1.95
2018-11-20T17:43:04.841Z,1.95
2018-11-20T17:45:47.558Z,1.96
2018-11-20T17:48:39.965Z,1.97
2018-11-20T17:52:02.248Z,1.98
2018-11-20T17:54:59.299Z,1.96
2018-11-20T17:57:45.715Z,1.98
2018-11-20T18:00:27.624Z,2.07
2018-11-20T18:03:05.100Z,2.01
2018-11-20T18:05:57.134Z,2.01
2018-11-20T18:08:39.424Z,1.99
2018-11-20T18:11:29.899Z,2.03
2018-11-20T18:14:20.442Z,2.02
2018-11-20T18:17:10.137Z,2.05
2018-11-20T18:19:55.118Z,2.10
2018-11-20T18:22:57.962Z,2.07
2018-11-20T18:25:43.898Z,2.09
2018-11-20T18:28:37.498Z,2.15
2018-11-20T18:31:37.551Z,2.15
2018-11-20T18:34:24.348Z,2.15
2018-11-20T18:37:11.922Z,2.18
2018-11-20T18:39:58.061Z,2.20
2018-11-20T18:42:50.940Z,2.24
2018-11-20T18:45:37.189Z,2.23
2018-11-20T18:48:23.711Z,2.21
2018-11-20T18:51:09.906Z,2.22
2018-11-20T18:53:57.414Z,2.22
2018-11-20T18:57:00.321Z,2.22
2018-11-20T18:59:46.783Z,2.18
2018-11-20T19:02:49.211Z,2.21
2018-11-20T19:05:42.568Z,2.24
2018-11-20T19:08:36.320Z,2.23
2018-11-20T19:11:29.525Z,2.25
2018-11-20T19:14:13.510Z,2.26
2018-11-20T19:16:59.885Z,2.23
2018-11-20T19:19:47.409Z,2.23
2018-11-20T19:22:37.997Z,2.23
2018-11-20T19:25:24.705Z,2.28
2018-11-20T19:28:12.270Z,2.28
2018-11-20T19:30:58.780Z,2.33
2018-11-20T19:33:49.176Z,2.33
2018-11-20T19:36:48.790Z,2.31
2018-11-20T19:39:42.511Z,2.35
2018-11-20T19:42:29.105Z,2.38
2018-11-20T19:45:34.760Z,2.38
2018-11-20T19:48:21.351Z,2.39
2018-11-20T19:51:11.580Z,2.44
2018-11-20T19:53:57.962Z,2.41
2018-11-20T19:56:44.063Z,2.45
2018-11-20T19:59:30.249Z,2.46
2018-11-20T20:02:17.786Z,2.50
2018-11-20T20:05:04.083Z,2.50
2018-11-20T20:07:54.759Z,2.50
2018-11-20T20:10:49.365Z,2.55
2018-11-20T20:13:52.230Z,2.52
2018-11-20T20:16:39.645Z,2.51
2018-11-20T20:19:25.758Z,2.52
2018-11-20T20:22:12.131Z,2.53
2018-11-20T20:25:02.581Z,2.62
2018-11-20T20:28:02.504Z,2.61
2018-11-20T20:30:40.068Z,2.61
2018-11-20T20:33:26.266Z,2.59
2018-11-20T20:36:34.441Z,2.62
2018-11-20T20:39:26.409Z,2.58
2018-11-20T20:42:28.653Z,2.58
2018-11-20T20:45:31.304Z,2.62
2018-11-20T20:48:21.658Z,2.64
2018-11-20T20:51:05.433Z,2.65
2018-11-20T20:53:51.880Z,2.69
2018-11-20T20:56:42.055Z,2.68
2018-11-20T20:59:41.424Z,2.70
2018-11-20T21:02:41.210Z,2.70
2018-11-20T21:05:24.386Z,2.71
2018-11-20T21:08:14.477Z,2.76
2018-11-20T21:11:17.391Z,2.76
2018-11-20T21:14:17.460Z,2.76
2018-11-20T21:17:07.319Z,2.70
2018-11-20T21:20:07.828Z,2.72
2018-11-20T21:22:54.196Z,2.72
2018-11-20T21:25:47.515Z,2.72
2018-11-20T21:28:41.131Z,2.74
2018-11-20T21:31:28.694Z,2.76
2018-11-20T21:34:16.403Z,2.77
2018-11-20T21:37:02.712Z,2.77
2018-11-20T21:39:56.408Z,2.76
2018-11-20T21:42:34.551Z,2.79
2018-11-20T21:45:31.021Z,2.76
2018-11-20T21:48:09.538Z,2.76
2018-11-20T21:51:09.408Z,2.77
2018-11-20T21:53:53.410Z,2.76
2018-11-20T21:56:45.627Z,2.80
2018-11-20T21:59:49.383Z,2.84
2018-11-20T22:02:49.199Z,2.84
2018-11-20T22:05:42.756Z,2.80
2018-11-20T22:08:36.496Z,2.81
2018-11-20T22:11:23.023Z,2.83
2018-11-20T22:14:05.049Z,2.82
2018-11-20T22:16:55.198Z,2.83
2018-11-20T22:19:58.292Z,2.85
2018-11-20T22:22:44.544Z,2.88
2018-11-20T22:25:32.281Z,2.85
2018-11-20T22:28:31.679Z,2.86
2018-11-20T22:31:18.147Z,2.86
2018-11-20T22:34:04.338Z,2.88
2018-11-20T22:36:48.687Z,2.88
2018-11-20T22:39:35.378Z,2.91
2018-11-20T22:42:21.617Z,2.92
2018-11-20T22:45:07.741Z,2.90
2018-11-20T22:48:13.670Z,2.89
2018-11-20T22:51:01.222Z,2.92
2018-11-20T22:54:03.645Z,2.94
2018-11-20T22:56:57.188Z,2.96
2018-11-20T22:59:44.726Z,2.98
2018-11-20T23:02:38.070Z,2.94
2018-11-20T23:05:23.014Z,2.91
2018-11-20T23:07:55.435Z,2.96
2018-11-20T23:10:25.260Z,2.94
2018-11-20T23:12:54.363Z,2.93
2018-11-20T23:15:23.282Z,2.94
2018-11-20T23:17:51.774Z,2.90
2018-11-20T23:20:20.369Z,2.94
2018-11-20T23:22:48.835Z,2.91
2018-11-20T23:25:17.376Z,2.91
2018-11-20T23:27:45.938Z,2.94
2018-11-20T23:30:17.207Z,2.97
2018-11-20T23:32:45.672Z,2.98
2018-11-20T23:35:14.690Z,2.98
2018-11-20T23:37:43.513Z,2.96
2018-11-20T23:40:13.143Z,2.96
2018-11-20T23:42:41.744Z,2.95
2018-11-20T23:45:12.761Z,2.96
2018-11-20T23:47:41.538Z,2.98
2018-11-20T23:50:11.831Z,2.95
2018-11-20T23:52:40.413Z,2.96
2018-11-20T23:55:11.109Z,2.95
2018-11-20T23:57:39.633Z,2.98
